Maurice, IA (51036)

8:32 AM CDT on September 04, 2015 (GMT -0500)
Orange City Municipal | | Change Station
CLOSE
Current Station
Airport
Location: Orange City,
Elevation: 1414 ft
Nearby Weather Stations

Elev 1414 ft 42.99 °N, 96.06 °W | Updated 17 minutes ago

Rain
Rain
72 °F
Feels Like 72 °F
N
13
Wind Variable Wind from South
Gusts 21 mph

Today
High -- | Low -- °F
--% Chance of Precip.
Yesterday
High -- | Low -- °F
Precip. -- in
6:52 AM 7:54 PM
Waning Gibbous, 59% visible
Pressure 29.89 in
Visibility 10.0 miles
Clouds Scattered Clouds 2000 ft
Scattered Clouds 3500 ft
Scattered Clouds 4600 ft
Dew Point 70 °F
Humidity 94%
Rainfall 0.00 in
Snow Depth Not available.
UV 1 out of 12
Pollen 9.50 out of 12
Air Quality Not available.
Flu Activity Not available.
METAR KORC 041315Z AUTO 18011G18KT 10SM -RA SCT020 SCT035 SCT046 22/21 A2989 RMK AO2
Pressure 29.89 in
Visibility 10.0 miles
Clouds Scattered Clouds 2000 ft
Scattered Clouds 3500 ft
Scattered Clouds 4600 ft
Dew Point 70 °F
Humidity 94%
Rainfall 0.00 in
Snow Depth Not available.
UV 1 out of 12
Pollen 9.50 out of 12
Air Quality Not available.
Flu Activity Not available.
METAR KORC 041315Z AUTO 18011G18KT 10SM -RA SCT020 SCT035 SCT046 22/21 A2989 RMK AO2

10-Day Weather Forecast

×

Almanac

Astronomy

Sep. 04, 2015 Rise Set
Actual Time
Civil Twilight
Nautical Twilight
Astronomical Twilight
Moon
Length of Visible Light
Length of Day
Tomorrow will be .
, % of the Moon is Illuminated

Today's Extremes

State Highs State Lows

Community

WunderPhotos

Upload Photos

1,852,181 photos uploaded!

WunderBlogs® & News

Nearby

Air Quality

  Air Quality AQ Index Pollutant
Not available.

Snow Depth

Station Depth Elevation

Earthquake Activity

City Distance Mag. Time & Date
Minimum magnitude displayed is 2.5.

Coastal Water Temperatures

Place Temperature

Stations

Nearby Weather Stations

Station Location Temp. Windchill Dew Point Humidity Wind Precip. Elev Updated Type